Time;durP1;ratioP1;P1;durP2;ratioP2;P2;SDS_P1;SDS_P2;PMS_P1;PMS_P2;Temp;Humidity;BMP_temperature;BMP_pressure;BME280_temperature;BME280_humidity;BME280_pressure;Samples;Min_cycle;Max_cycle;Signal;HPM_P1;HPM_P2
2022/03/22 00:00:55;;;;;;;25.80;13.77;;;;;;;11.99;42.31;101351.19;4919131;29;20035;-77
2022/03/22 00:03:24;;;;;;;28.30;13.23;;;;;;;11.74;42.39;101363.13;4918134;29;20111;-77
2022/03/22 00:05:50;;;;;;;23.10;13.15;;;;;;;11.76;42.89;101369.19;4916709;29;20087;-77
2022/03/22 00:08:15;;;;;;;23.63;12.65;;;;;;;11.78;42.05;101367.03;4918781;29;20035;-77
2022/03/22 00:10:41;;;;;;;24.33;13.20;;;;;;;11.67;42.42;101365.94;4918342;29;20032;-77
2022/03/22 00:13:07;;;;;;;29.90;14.35;;;;;;;11.65;42.66;101370.78;4919240;29;21082;-78
2022/03/22 00:15:34;;;;;;;24.02;11.80;;;;;;;11.61;42.51;101366.91;4919338;29;20027;-77
2022/03/22 00:17:59;;;;;;;23.38;10.70;;;;;;;11.83;42.65;101373.72;4916471;29;20024;-77
2022/03/22 00:20:25;;;;;;;32.20;13.90;;;;;;;11.62;42.76;101368.53;4919840;29;20849;-77
2022/03/22 00:22:51;;;;;;;21.08;11.50;;;;;;;11.86;41.70;101375.97;4916891;29;20055;-76
2022/03/22 00:25:17;;;;;;;27.38;12.82;;;;;;;11.84;41.74;101378.13;4916980;29;20024;-77
2022/03/22 00:27:53;;;;;;;25.23;13.23;;;;;;;11.90;41.50;101371.69;4916340;29;20047;-79
2022/03/22 00:30:32;;;;;;;27.73;13.80;;;;;;;11.91;41.50;101370.66;4918340;29;20111;-77
2022/03/22 00:33:00;;;;;;;23.95;13.05;;;;;;;11.98;41.18;101371.34;4917347;29;20612;-77
2022/03/22 00:38:30;;;;;;;26.38;12.90;;;;;;;11.79;41.16;101373.34;4919926;29;20087;-77
2022/03/22 00:40:56;;;;;;;22.80;11.30;;;;;;;11.85;41.60;101377.03;4919325;29;20227;-78
2022/03/22 00:43:22;;;;;;;27.40;13.25;;;;;;;11.93;41.32;101378.59;4917288;29;20476;-79
2022/03/22 00:45:48;;;;;;;23.80;12.80;;;;;;;11.99;41.80;101375.78;4915555;29;20872;-79
2022/03/22 00:48:13;;;;;;;17.55;11.02;;;;;;;11.95;42.14;101382.78;4916641;29;20055;-77
2022/03/22 00:50:44;;;;;;;18.00;10.95;;;;;;;11.77;41.56;101381.78;4918129;29;20121;-77
2022/03/22 00:53:12;;;;;;;20.90;11.90;;;;;;;11.80;42.94;101383.19;4916810;29;20111;-77
2022/03/22 00:55:40;;;;;;;23.50;11.93;;;;;;;11.89;42.78;101373.63;4917587;29;20031;-77
2022/03/22 00:58:05;;;;;;;26.30;14.77;;;;;;;12.01;43.14;101378.25;4915641;29;20134;-79
2022/03/22 01:00:31;;;;;;;22.83;12.02;;;;;;;11.72;43.36;101378.91;4916924;29;20118;-78
2022/03/22 01:02:58;;;;;;;23.05;11.93;;;;;;;11.79;43.30;101373.34;4915251;29;20031;-77
2022/03/22 01:05:25;;;;;;;24.55;12.63;;;;;;;11.61;42.94;101376.97;4917770;29;20383;-76
2022/03/22 01:08:03;;;;;;;24.98;12.75;;;;;;;11.82;41.55;101372.88;4917986;29;20130;-77
2022/03/22 01:10:31;;;;;;;25.33;14.27;;;;;;;11.70;40.73;101375.56;4917835;29;20032;-77
2022/03/22 01:12:56;;;;;;;21.35;12.00;;;;;;;11.93;41.31;101379.44;4916850;29;20040;-78
2022/03/22 01:15:32;;;;;;;22.42;12.95;;;;;;;11.83;41.70;101376.44;4917752;29;20584;-80
2022/03/22 01:17:58;;;;;;;25.10;14.77;;;;;;;11.61;41.31;101366.91;4917266;29;20078;-77
2022/03/22 01:20:27;;;;;;;22.42;11.68;;;;;;;11.47;43.36;101381.78;4917567;29;20063;-77
2022/03/22 01:22:54;;;;;;;20.55;11.55;;;;;;;11.51;45.37;101370.16;4905126;29;20035;-77
2022/03/22 01:25:23;;;;;;;31.13;13.55;;;;;;;11.31;44.98;101378.63;4916282;29;20063;-78
2022/03/22 01:27:50;;;;;;;24.67;14.43;;;;;;;11.44;42.98;101374.88;4917048;29;20103;-76
2022/03/22 01:30:19;;;;;;;21.92;11.15;;;;;;;11.51;42.06;101374.81;4916937;29;20803;-78
2022/03/22 01:32:45;;;;;;;21.27;12.70;;;;;;;11.28;42.48;101370.91;4914742;29;20079;-77
2022/03/22 01:35:10;;;;;;;27.25;12.68;;;;;;;11.56;42.63;101364.84;4917868;29;20035;-77
2022/03/22 01:37:37;;;;;;;23.13;11.77;;;;;;;11.59;41.74;101362.72;4917338;29;20102;-77
2022/03/22 01:40:04;;;;;;;23.70;11.70;;;;;;;11.54;42.77;101358.78;4916119;29;20086;-79
2022/03/22 01:42:29;;;;;;;22.42;11.70;;;;;;;11.61;42.93;101361.44;4917494;29;20036;-77
2022/03/22 01:44:55;;;;;;;21.30;12.43;;;;;;;11.57;41.51;101360.22;4916096;29;20175;-76
2022/03/22 01:47:25;;;;;;;18.90;10.50;;;;;;;11.51;42.91;101361.16;4916484;29;20028;-77
2022/03/22 01:49:51;;;;;;;18.25;10.90;;;;;;;11.60;40.83;101361.63;4915337;29;20873;-78
2022/03/22 01:52:20;;;;;;;19.17;11.25;;;;;;;11.41;40.60;101351.59;4920115;29;20509;-77
2022/03/22 01:54:50;;;;;;;19.60;10.27;;;;;;;11.48;41.98;101356.97;4915328;29;20819;-76
2022/03/22 01:57:23;;;;;;;20.73;10.85;;;;;;;11.31;43.93;101351.31;4917943;29;20888;-78
2022/03/22 01:59:49;;;;;;;25.67;12.93;;;;;;;11.30;43.07;101355.97;4916138;29;20039;-77
2022/03/22 02:07:47;;;;;;;23.67;12.35;;;;;;;11.45;42.94;101352.00;4916998;29;20063;-78
2022/03/22 02:10:14;;;;;;;18.67;10.80;;;;;;;11.42;41.61;101346.97;4918869;29;20032;-77
2022/03/22 02:12:41;;;;;;;23.85;11.00;;;;;;;11.28;42.58;101352.63;4918454;29;20122;-77
2022/03/22 02:15:07;;;;;;;19.02;10.40;;;;;;;11.15;41.68;101352.78;4914441;29;20043;-76
2022/03/22 02:17:34;;;;;;;16.90;9.20;;;;;;;11.30;41.69;101349.66;4916427;29;20035;-76
2022/03/22 02:20:00;;;;;;;19.02;11.32;;;;;;;11.31;42.11;101346.69;4914979;29;20188;-78
2022/03/22 02:22:34;;;;;;;26.33;10.82;;;;;;;11.15;42.22;101348.16;4918709;29;20032;-77
2022/03/22 02:25:00;;;;;;;19.58;11.30;;;;;;;11.16;43.34;101354.47;4915254;29;20055;-78
2022/03/22 02:27:28;;;;;;;20.95;11.20;;;;;;;11.25;41.20;101353.06;4915510;29;20098;-77
2022/03/22 02:29:53;;;;;;;20.75;10.48;;;;;;;11.22;40.73;101350.81;4912179;29;20320;-78
2022/03/22 02:32:23;;;;;;;21.67;9.90;;;;;;;11.43;40.14;101340.47;4918072;29;20407;-76
2022/03/22 02:34:49;;;;;;;19.38;11.30;;;;;;;11.37;40.86;101338.66;4915063;29;20082;-78
2022/03/22 02:37:14;;;;;;;28.88;11.32;;;;;;;11.41;40.12;101339.88;4916208;29;20517;-78
2022/03/22 02:39:39;;;;;;;19.13;10.05;;;;;;;11.23;40.32;101344.28;4917148;29;20083;-77
2022/03/22 02:44:49;;;;;;;17.38;9.70;;;;;;;11.33;40.30;101339.09;4909658;29;20273;-77
2022/03/22 02:47:14;;;;;;;21.50;11.57;;;;;;;11.31;39.49;101333.03;4916535;29;20028;-77
2022/03/22 02:49:40;;;;;;;17.77;10.20;;;;;;;11.27;39.53;101339.22;4916886;29;20020;-78
2022/03/22 02:52:06;;;;;;;20.63;10.90;;;;;;;11.24;39.42;101340.50;4915596;29;20049;-77
2022/03/22 02:54:31;;;;;;;17.63;9.05;;;;;;;11.28;39.16;101338.97;4916338;29;20266;-79
2022/03/22 02:56:56;;;;;;;26.38;10.18;;;;;;;11.35;39.23;101341.59;4922757;29;20035;-78
2022/03/22 02:59:22;;;;;;;18.95;10.20;;;;;;;11.21;39.33;101347.25;4905193;29;20034;-78
2022/03/22 03:01:47;;;;;;;19.80;10.35;;;;;;;11.35;38.73;101335.31;4921507;29;20440;-78
2022/03/22 03:04:12;;;;;;;21.23;9.95;;;;;;;11.35;38.63;101332.59;4922973;29;20083;-77
2022/03/22 03:06:38;;;;;;;27.75;12.82;;;;;;;11.32;39.42;101340.19;4922565;29;20033;-78
2022/03/22 03:09:03;;;;;;;20.98;9.50;;;;;;;11.23;38.70;101343.47;4923235;29;20054;-79
2022/03/22 03:11:29;;;;;;;22.38;10.80;;;;;;;11.37;40.59;101341.38;4921661;29;20111;-78
2022/03/22 03:16:39;;;;;;;19.20;10.80;;;;;;;11.09;38.90;101341.75;4922190;29;20042;-79
2022/03/22 03:19:05;;;;;;;22.10;10.18;;;;;;;11.37;39.25;101341.38;4922208;29;20122;-77
2022/03/22 03:21:31;;;;;;;18.83;10.68;;;;;;;11.25;39.97;101336.69;4922581;29;20448;-77
2022/03/22 03:24:10;;;;;;;25.35;13.20;;;;;;;11.38;38.58;101334.84;4922021;29;20118;-77
2022/03/22 03:26:35;;;;;;;19.42;9.25;;;;;;;11.44;39.04;101337.50;4923046;29;20110;-78
2022/03/22 03:29:01;;;;;;;16.63;9.68;;;;;;;11.32;39.18;101340.19;4922462;29;20023;-78
2022/03/22 03:31:26;;;;;;;15.48;8.18;;;;;;;11.30;38.77;101350.50;4921645;29;20123;-78
2022/03/22 03:33:52;;;;;;;13.80;9.23;;;;;;;11.20;38.59;101347.50;4922264;29;20466;-79
2022/03/22 03:36:17;;;;;;;17.13;9.70;;;;;;;11.28;39.27;101351.78;4922301;29;20439;-77
2022/03/22 03:38:42;;;;;;;26.97;9.03;;;;;;;11.20;38.92;101352.94;4922755;29;20039;-76
2022/03/22 03:43:53;;;;;;;19.77;11.43;;;;;;;11.13;38.37;101349.44;4931428;29;20106;-78
2022/03/22 03:49:04;;;;;;;21.33;10.80;;;;;;;10.96;40.17;101361.81;4944791;29;20062;-78
2022/03/22 03:51:29;;;;;;;20.08;11.98;;;;;;;11.07;38.44;101357.50;4931900;29;20094;-79
2022/03/22 03:53:55;;;;;;;13.67;8.33;;;;;;;11.12;39.23;101367.75;4925507;29;20547;-78
2022/03/22 03:56:20;;;;;;;13.67;8.60;;;;;;;10.98;39.57;101361.63;4926118;29;20306;-78
2022/03/22 03:58:45;;;;;;;17.33;9.13;;;;;;;10.70;41.13;101373.91;4925045;29;20286;-79
2022/03/22 04:01:11;;;;;;;17.93;9.20;;;;;;;10.77;40.84;101377.38;4925264;29;20765;-78
2022/03/22 04:03:38;;;;;;;17.77;10.15;;;;;;;10.77;40.25;101376.53;4924843;29;20352;-78
2022/03/22 04:06:03;;;;;;;22.20;9.00;;;;;;;10.36;42.87;101376.91;4925452;29;20039;-78
2022/03/22 04:08:29;;;;;;;17.65;8.75;;;;;;;10.11;43.00;101383.22;4925236;29;20034;-78
2022/03/22 04:10:54;;;;;;;21.17;10.60;;;;;;;10.11;42.41;101375.84;4924713;29;20111;-78
2022/03/22 04:13:19;;;;;;;17.02;10.07;;;;;;;10.40;41.21;101375.41;4925388;29;20102;-78
2022/03/22 04:15:44;;;;;;;17.60;9.90;;;;;;;10.54;41.93;101375.28;4924703;29;20550;-78
2022/03/22 04:18:10;;;;;;;20.75;12.35;;;;;;;10.24;40.55;101371.34;4925485;29;20325;-78
2022/03/22 04:20:35;;;;;;;20.50;9.60;;;;;;;10.40;42.55;101369.94;4924105;29;20438;-78
2022/03/22 04:23:00;;;;;;;17.40;10.10;;;;;;;10.36;41.27;101375.00;4925187;29;20031;-77
2022/03/22 04:25:25;;;;;;;16.13;7.93;;;;;;;9.81;42.87;101371.88;4908084;29;20028;-77
2022/03/22 04:33:34;;;;;;;18.83;10.73;;;;;;;9.52;44.26;101370.59;4924129;29;20640;-78
2022/03/22 04:36:02;;;;;;;22.23;10.98;;;;;;;9.01;45.33;101375.84;4925164;29;20718;-77
2022/03/22 04:38:27;;;;;;;14.48;8.27;;;;;;;8.68;47.75;101381.19;4924805;29;20035;-78
2022/03/22 04:40:53;;;;;;;17.88;9.63;;;;;;;8.70;47.82;101380.97;4924794;29;20026;-78
2022/03/22 04:43:18;;;;;;;18.02;9.50;;;;;;;8.49;46.81;101389.13;4926024;29;20236;-77
2022/03/22 04:45:44;;;;;;;19.10;10.90;;;;;;;8.36;47.94;101391.84;4943307;29;20541;-78
2022/03/22 04:48:22;;;;;;;19.35;8.98;;;;;;;8.22;49.00;101391.00;4944234;29;20042;-77
2022/03/22 04:50:47;;;;;;;18.88;9.15;;;;;;;8.02;48.89;101392.66;4935794;29;20040;-76
2022/03/22 04:58:34;;;;;;;19.98;10.90;;;;;;;8.21;48.88;101392.91;4924511;29;20532;-78
2022/03/22 05:01:00;;;;;;;19.10;10.60;;;;;;;8.11;49.32;101395.19;4924177;29;20031;-76
2022/03/22 05:03:25;;;;;;;18.45;9.35;;;;;;;8.14;49.27;101386.59;4923851;29;20446;-77
2022/03/22 05:08:34;;;;;;;16.05;9.13;;;;;;;8.02;49.54;101391.81;4924539;29;20086;-77
2022/03/22 05:10:59;;;;;;;16.77;8.33;;;;;;;8.01;49.64;101401.88;4923897;29;20035;-77
2022/03/22 05:13:24;;;;;;;17.95;11.25;;;;;;;7.87;50.31;101408.31;4924269;29;20278;-76
2022/03/22 05:15:51;;;;;;;16.75;8.45;;;;;;;7.98;48.89;101404.16;4923706;29;20189;-77
2022/03/22 05:18:17;;;;;;;16.70;8.93;;;;;;;7.71;51.18;101399.50;4924132;29;20479;-77
2022/03/22 05:20:42;;;;;;;16.80;9.57;;;;;;;7.76;50.40;101409.75;4923658;29;20071;-77
2022/03/22 05:23:07;;;;;;;20.65;10.68;;;;;;;7.70;50.69;101412.25;4924606;29;20044;-76
2022/03/22 05:25:33;;;;;;;16.38;8.85;;;;;;;7.68;50.78;101413.50;4923802;29;20031;-78
2022/03/22 05:28:00;;;;;;;18.05;8.70;;;;;;;7.62;51.32;101417.03;4924113;29;20027;-77
2022/03/22 05:30:25;;;;;;;19.35;9.50;;;;;;;7.56;50.60;101413.25;4922919;29;20035;-78
2022/03/22 05:32:50;;;;;;;17.47;9.20;;;;;;;7.71;50.58;101413.91;4932474;29;20105;-77
2022/03/22 05:35:16;;;;;;;17.17;9.03;;;;;;;7.76;50.07;101421.47;4942869;29;20272;-77
2022/03/22 05:37:41;;;;;;;15.70;9.23;;;;;;;7.66;50.22;101421.84;4942863;29;20285;-78
2022/03/22 05:40:07;;;;;;;20.03;9.80;;;;;;;7.41;50.55;101419.69;4941638;29;20803;-76
2022/03/22 05:42:37;;;;;;;15.65;8.45;;;;;;;7.54;51.03;101424.31;4920598;29;20344;-78
2022/03/22 05:45:02;;;;;;;18.58;9.30;;;;;;;8.17;49.12;101421.53;4940229;29;20600;-78
2022/03/22 05:47:27;;;;;;;19.25;8.52;;;;;;;8.08;50.18;101422.75;4942360;29;20062;-78
2022/03/22 05:49:53;;;;;;;15.27;7.97;;;;;;;8.03;49.62;101426.91;4943383;29;20039;-76
2022/03/22 05:52:18;;;;;;;22.63;10.37;;;;;;;8.07;49.91;101432.81;4923736;29;20318;-77
2022/03/22 05:54:43;;;;;;;15.43;8.57;;;;;;;8.12;50.47;101440.31;4923157;29;20310;-77
2022/03/22 06:00:13;;;;;;;18.25;9.23;;;;;;;8.11;50.84;101439.50;4922444;29;20398;-77
2022/03/22 06:02:40;;;;;;;18.40;10.05;;;;;;;8.09;49.86;101436.16;4923469;29;20042;-78
2022/03/22 06:05:08;;;;;;;23.33;9.38;;;;;;;8.09;52.22;101429.88;4922875;29;20034;-78
2022/03/22 06:07:33;;;;;;;18.23;9.13;;;;;;;8.28;50.07;101439.91;4923658;29;20035;-78
2022/03/22 06:09:58;;;;;;;21.13;11.07;;;;;;;8.53;49.79;101435.75;4917461;29;20390;-77
2022/03/22 06:12:24;;;;;;;17.60;7.77;;;;;;;8.89;47.28;101433.63;4919450;29;20067;-77
2022/03/22 06:15:14;;;;;;;20.50;11.25;;;;;;;9.32;46.98;101429.53;4918613;29;20274;-78
2022/03/22 06:17:34;;;;;;;17.55;8.55;;;;;;;9.65;44.62;101435.03;4915209;29;20425;-76
2022/03/22 06:20:01;;;;;;;17.33;11.30;;;;;;;9.74;46.04;101424.75;4918793;29;20062;-75
2022/03/22 06:22:26;;;;;;;15.70;8.80;;;;;;;9.76;41.51;101430.81;4916844;29;20299;-76
2022/03/22 06:24:52;;;;;;;19.00;8.77;;;;;;;10.07;41.39;101431.84;4915664;29;20323;-77
2022/03/22 06:27:19;;;;;;;13.60;8.17;;;;;;;10.22;40.44;101433.44;4918109;29;20266;-78
2022/03/22 06:29:44;;;;;;;16.42;9.27;;;;;;;10.24;40.11;101431.31;4917355;29;20317;-78
2022/03/22 06:32:11;;;;;;;13.27;7.47;;;;;;;10.26;40.87;101440.09;4921336;29;20035;-78
2022/03/22 06:34:37;;;;;;;14.85;8.40;;;;;;;10.29;40.35;101436.94;4921234;29;20042;-78
2022/03/22 06:37:02;;;;;;;15.27;9.40;;;;;;;10.29;39.90;101428.78;4923229;29;20027;-79
2022/03/22 06:39:27;;;;;;;26.50;8.82;;;;;;;10.33;39.54;101446.31;4921791;29;20165;-78
2022/03/22 06:41:53;;;;;;;16.73;10.80;;;;;;;10.38;38.84;101442.94;4921417;29;20593;-78
2022/03/22 06:44:18;;;;;;;13.70;9.20;;;;;;;10.38;39.11;101443.78;4930583;29;20030;-76
2022/03/22 06:46:43;;;;;;;19.53;10.03;;;;;;;10.48;39.10;101453.34;4940553;29;20483;-77
2022/03/22 06:49:08;;;;;;;15.10;9.33;;;;;;;10.44;39.58;101458.41;4941392;29;20471;-79
2022/03/22 06:51:34;;;;;;;19.50;9.83;;;;;;;10.48;37.80;101456.06;4927418;29;20266;-79
2022/03/22 06:53:59;;;;;;;17.07;9.67;;;;;;;10.56;38.91;101453.09;4922158;29;20282;-78
2022/03/22 06:56:24;;;;;;;16.50;9.13;;;;;;;10.68;38.24;101446.94;4921587;29;20323;-78
2022/03/22 06:58:50;;;;;;;21.33;9.05;;;;;;;10.67;38.56;101450.72;4921825;29;20301;-78
2022/03/22 07:01:15;;;;;;;19.10;8.90;;;;;;;10.72;37.92;101456.31;4920749;29;20131;-78
2022/03/22 07:03:40;;;;;;;18.65;9.13;;;;;;;10.76;38.04;101451.25;4921478;29;20531;-76
2022/03/22 07:06:06;;;;;;;17.42;7.60;;;;;;;10.71;38.46;101458.22;4920929;29;20493;-78
2022/03/22 07:08:32;;;;;;;16.35;8.77;;;;;;;10.70;38.31;101448.34;4921469;29;20038;-78
2022/03/22 07:13:42;;;;;;;17.13;8.68;;;;;;;10.68;38.58;101455.13;4921412;29;20546;-79
2022/03/22 07:16:07;;;;;;;16.03;8.90;;;;;;;10.75;38.09;101450.41;4920198;29;20032;-78
2022/03/22 07:18:33;;;;;;;16.90;8.97;;;;;;;10.82;36.86;101453.91;4914896;29;20285;-79
2022/03/22 07:21:04;;;;;;;14.32;7.97;;;;;;;10.84;37.82;101456.44;4917431;29;20723;-79
2022/03/22 07:23:29;;;;;;;13.40;8.13;;;;;;;10.81;38.40;101452.25;4924586;29;20071;-79
2022/03/22 07:25:54;;;;;;;17.98;8.77;;;;;;;10.82;38.40;101453.91;4923558;29;20035;-80
2022/03/22 07:28:20;;;;;;;16.88;10.50;;;;;;;10.89;38.01;101463.94;4924651;29;20039;-79
2022/03/22 07:30:45;;;;;;;14.87;8.67;;;;;;;10.94;38.59;101462.19;4906649;29;20031;-80
2022/03/22 07:33:11;;;;;;;18.93;11.97;;;;;;;10.95;38.43;101460.28;4906697;29;20417;-79
2022/03/22 07:35:36;;;;;;;17.48;8.43;;;;;;;11.02;37.91;101457.50;4920849;29;20274;-79
2022/03/22 07:38:03;;;;;;;18.67;9.85;;;;;;;11.02;38.25;101466.53;4922678;29;20377;-79
2022/03/22 07:40:29;;;;;;;13.90;8.05;;;;;;;10.98;38.43;101465.31;4923020;29;20024;-79
2022/03/22 07:42:54;;;;;;;16.30;8.90;;;;;;;11.03;38.69;101467.34;4921262;29;20498;-79
2022/03/22 07:45:20;;;;;;;16.43;9.40;;;;;;;11.05;38.55;101466.06;4943139;29;20412;-79
2022/03/22 07:47:45;;;;;;;14.82;9.18;;;;;;;11.05;39.10;101468.81;4942288;29;20565;-79
2022/03/22 07:52:58;;;;;;;21.10;11.20;;;;;;;11.11;38.99;101469.78;4921467;29;20045;-79
2022/03/22 07:55:24;;;;;;;15.07;7.45;;;;;;;11.23;38.12;101467.13;4908093;29;20036;-80
2022/03/22 07:57:49;;;;;;;16.92;8.15;;;;;;;11.27;37.15;101468.34;4918951;29;20566;-79
2022/03/22 08:00:15;;;;;;;17.00;8.45;;;;;;;11.26;37.62;101474.88;4921084;29;20031;-79
2022/03/22 08:02:51;;;;;;;24.48;10.15;;;;;;;11.31;37.99;101476.91;4924757;29;20201;-81
2022/03/22 08:05:17;;;;;;;15.40;7.82;;;;;;;11.37;37.91;101469.72;4924891;29;20505;-82
2022/03/22 08:07:42;;;;;;;21.27;9.63;;;;;;;11.35;37.80;101474.59;4925067;29;20057;-81
2022/03/22 08:10:07;;;;;;;16.73;8.70;;;;;;;11.36;38.71;101479.81;4924068;29;20438;-81
2022/03/22 08:12:48;;;;;;;12.77;7.85;;;;;;;11.42;38.98;101478.06;4924444;29;20357;-80
2022/03/22 08:15:14;;;;;;;15.93;8.73;;;;;;;11.43;38.49;101468.81;4923919;29;20027;-81
2022/03/22 08:17:39;;;;;;;14.27;7.78;;;;;;;11.48;39.23;101474.41;4923706;29;20450;-81
2022/03/22 08:20:07;;;;;;;35.78;9.30;;;;;;;11.56;38.76;101479.56;4924546;29;20530;-82
2022/03/22 08:22:44;;;;;;;18.05;10.23;;;;;;;11.63;38.75;101478.66;4923553;29;20111;-81
2022/03/22 08:25:09;;;;;;;17.60;8.23;;;;;;;11.72;40.71;101477.25;4921301;29;20054;-81
2022/03/22 08:27:35;;;;;;;19.00;10.43;;;;;;;11.71;38.53;101486.53;4919238;29;20134;-82
2022/03/22 08:30:00;;;;;;;17.40;9.90;;;;;;;11.67;38.55;101474.41;4923816;29;20310;-81
2022/03/22 08:32:25;;;;;;;20.85;9.38;;;;;;;11.71;39.44;101482.97;4924168;29;20032;-82
2022/03/22 08:34:50;;;;;;;18.47;9.87;;;;;;;11.60;42.68;101481.81;4923290;29;20028;-82
2022/03/22 08:37:16;;;;;;;17.60;7.72;;;;;;;11.56;40.94;101482.31;4921994;29;20293;-80
2022/03/22 08:39:41;;;;;;;15.33;8.53;;;;;;;11.69;40.21;101483.19;4924195;29;20038;-81
2022/03/22 08:44:50;;;;;;;15.43;8.32;;;;;;;11.85;39.52;101476.25;4916768;29;20218;-81
2022/03/22 08:47:16;;;;;;;14.60;8.47;;;;;;;11.83;38.76;101472.09;4923315;29;20479;-81
2022/03/22 08:49:41;;;;;;;16.05;8.73;;;;;;;11.96;39.43;101474.63;4923833;29;20298;-82
2022/03/22 08:52:07;;;;;;;20.05;9.98;;;;;;;12.05;38.66;101475.13;4923435;29;20031;-81
2022/03/22 08:54:32;;;;;;;16.42;8.32;;;;;;;12.07;39.94;101472.16;4924290;29;20082;-82
2022/03/22 08:56:57;;;;;;;16.85;9.07;;;;;;;11.93;41.93;101477.84;4924416;29;20024;-83
2022/03/22 08:59:23;;;;;;;16.13;8.32;;;;;;;12.05;41.04;101469.66;4923603;29;20056;-82
2022/03/22 09:01:48;;;;;;;13.32;7.15;;;;;;;12.03;43.49;101471.81;4923193;29;20055;-82
2022/03/22 09:06:57;;;;;;;13.65;7.97;;;;;;;12.16;42.94;101470.81;4923386;29;20333;-80
2022/03/22 09:09:24;;;;;;;22.65;9.10;;;;;;;12.13;39.62;101466.63;4922872;29;20032;-79
2022/03/22 09:14:33;;;;;;;;;;;;;;;12.34;39.26;101472.63;4920147;29;20581;-82
2022/03/22 09:16:58;;;;;;;15.60;9.13;;;;;;;12.43;38.73;101466.81;4923385;29;19919;-82
2022/03/22 09:19:23;;;;;;;15.75;8.07;;;;;;;12.40;40.83;101462.66;4923286;29;20087;-80
2022/03/22 09:21:49;;;;;;;14.13;8.57;;;;;;;12.46;38.96;101464.44;4922459;29;20337;-81
2022/03/22 09:24:14;;;;;;;19.50;10.23;;;;;;;12.52;38.34;101462.66;4923098;29;20312;-79
2022/03/22 09:26:39;;;;;;;13.47;8.40;;;;;;;12.52;39.53;101464.56;4922906;29;20540;-80
2022/03/22 09:29:04;;;;;;;15.82;8.30;;;;;;;12.56;39.67;101452.91;4905765;29;20754;-81
2022/03/22 09:31:30;;;;;;;16.53;9.40;;;;;;;12.55;39.95;101455.91;4915156;29;20388;-80
2022/03/22 09:33:57;;;;;;;16.57;9.70;;;;;;;12.49;43.23;101452.19;4941979;29;20277;-82
2022/03/22 09:36:22;;;;;;;24.60;9.15;;;;;;;12.64;40.39;101443.53;4941723;29;20356;-81
2022/03/22 09:38:48;;;;;;;19.85;9.55;;;;;;;12.69;41.74;101451.03;4935420;29;20111;-79
2022/03/22 09:41:15;;;;;;;16.98;9.38;;;;;;;12.82;40.32;101448.03;4914840;29;20075;-82
2022/03/22 09:43:48;;;;;;;17.52;9.27;;;;;;;12.91;42.21;101453.16;4925284;29;20035;-80
2022/03/22 09:46:19;;;;;;;23.15;9.85;;;;;;;12.84;41.20;101450.53;4941162;29;20119;-81
2022/03/22 09:48:46;;;;;;;20.77;11.30;;;;;;;12.95;40.78;101449.72;4940050;29;20513;-82
2022/03/22 09:53:56;;;;;;;22.58;10.27;;;;;;;13.09;40.75;101435.75;4920267;29;20743;-81
2022/03/22 09:56:26;;;;;;;16.50;10.20;;;;;;;13.02;44.47;101443.25;4904060;29;20095;-80
2022/03/22 09:59:04;;;;;;;18.98;9.38;;;;;;;13.14;40.87;101444.06;4921295;29;20518;-80
2022/03/22 10:01:31;;;;;;;16.85;9.43;;;;;;;13.18;42.29;101437.03;4920780;29;20040;-80
2022/03/22 10:03:58;;;;;;;16.95;10.20;;;;;;;13.11;41.79;101436.34;4910064;29;20048;-81
2022/03/22 10:06:23;;;;;;;20.58;10.88;;;;;;;13.34;40.44;101440.13;4921445;29;20035;-81
2022/03/22 10:08:50;;;;;;;22.17;8.52;;;;;;;13.30;40.97;101438.94;4920259;29;20486;-83
2022/03/22 10:11:15;;;;;;;20.88;10.52;;;;;;;13.40;40.07;101427.34;4916869;29;20040;-79
2022/03/22 10:13:54;;;;;;;23.40;10.10;;;;;;;13.46;39.24;101433.75;4918306;29;20043;-78
2022/03/22 10:16:20;;;;;;;18.88;8.70;;;;;;;13.61;39.79;101436.81;4915394;29;20051;-78
2022/03/22 10:18:46;;;;;;;16.83;8.90;;;;;;;13.65;39.81;101420.72;4918054;29;20047;-80
2022/03/22 10:21:11;;;;;;;18.45;9.70;;;;;;;13.71;40.74;101417.00;4916163;29;20420;-80
2022/03/22 10:23:55;;;;;;;19.00;10.27;;;;;;;13.81;39.22;101415.53;4916884;29;20044;-80
2022/03/22 10:26:30;;;;;;;23.45;10.73;;;;;;;13.87;39.86;101415.38;4921780;29;20270;-80
2022/03/22 10:28:56;;;;;;;17.67;10.73;;;;;;;13.99;39.07;101419.97;4922371;29;20035;-81
2022/03/22 10:31:33;;;;;;;17.08;9.32;;;;;;;14.16;38.81;101406.25;4927203;29;20032;-80
2022/03/22 10:33:59;;;;;;;17.13;9.65;;;;;;;14.09;38.98;101411.91;4922819;29;20047;-81
2022/03/22 10:36:25;;;;;;;22.63;9.63;;;;;;;14.20;38.26;101412.06;4927153;29;20533;-81
2022/03/22 10:38:59;;;;;;;16.88;10.02;;;;;;;14.29;39.61;101413.34;4925208;29;20043;-82
2022/03/22 10:41:29;;;;;;;18.73;10.55;;;;;;;14.36;38.72;101408.50;4925389;29;20042;-81
2022/03/22 10:44:05;;;;;;;18.70;9.52;;;;;;;14.60;38.91;101410.25;4928742;29;20095;-79
2022/03/22 10:46:31;;;;;;;19.85;11.38;;;;;;;14.56;38.30;101403.59;4921424;29;20032;-79
2022/03/22 10:49:14;;;;;;;21.08;11.77;;;;;;;14.51;38.49;101401.59;4921772;29;20487;-80
2022/03/22 10:51:43;;;;;;;17.50;10.17;;;;;;;14.60;38.54;101402.00;4906140;29;20049;-80
2022/03/22 10:54:17;;;;;;;23.30;12.63;;;;;;;14.65;38.50;101403.97;4925039;29;20298;-81
2022/03/22 10:56:54;;;;;;;18.90;9.15;;;;;;;14.98;38.43;101394.03;4925668;29;20031;-81
2022/03/22 10:59:22;;;;;;;16.40;8.88;;;;;;;14.98;38.03;101404.19;4908610;29;20442;-80
2022/03/22 11:01:48;;;;;;;21.83;11.20;;;;;;;15.03;38.41;101396.81;4925394;29;20475;-80
2022/03/22 11:04:15;;;;;;;20.25;10.18;;;;;;;15.03;37.35;101405.06;4925684;29;20066;-80
2022/03/22 11:06:42;;;;;;;38.80;9.82;;;;;;;15.51;37.17;101395.47;4925375;29;20499;-80
2022/03/22 11:09:07;;;;;;;17.52;8.75;;;;;;;15.38;37.85;101392.03;4925220;29;20047;-81
2022/03/22 11:11:33;;;;;;;23.63;10.63;;;;;;;15.21;35.78;101392.13;4924689;29;20395;-80
2022/03/22 11:13:59;;;;;;;14.18;7.60;;;;;;;15.30;35.75;101384.25;4926458;29;20510;-81
2022/03/22 11:16:28;;;;;;;17.65;8.60;;;;;;;15.30;37.58;101381.50;4929721;29;20019;-81
2022/03/22 11:19:01;;;;;;;17.48;8.73;;;;;;;15.27;35.67;101385.59;4925655;29;20040;-81
2022/03/22 11:21:28;;;;;;;14.68;6.78;;;;;;;15.49;37.72;101384.75;4926024;29;20024;-81
2022/03/22 11:24:07;;;;;;;18.90;8.18;;;;;;;15.37;35.96;101373.91;4928405;29;20043;-81
2022/03/22 11:26:44;;;;;;;13.38;7.03;;;;;;;15.63;36.50;101373.31;4928623;29;20062;-80
2022/03/22 11:29:19;;;;;;;10.65;4.95;;;;;;;15.70;37.04;101376.69;4928246;29;20395;-81
2022/03/22 11:34:08;;;;;;;15.85;6.32;;;;;;;15.80;35.12;101366.88;4925029;29;20114;-81
2022/03/22 11:34:35;;;;;;;16.85;6.43;;;;;;;15.85;35.85;101372.41;4921091;29;20138;-80
2022/03/22 11:37:01;;;;;;;16.08;7.07;;;;;;;16.41;33.51;101360.22;4926864;29;20122;-80
2022/03/22 11:42:20;;;;;;;12.45;5.40;;;;;;;16.46;35.13;101356.66;4916376;29;20388;-82
2022/03/22 11:45:01;;;;;;;16.58;7.03;;;;;;;16.32;33.44;101356.31;4918283;29;20432;-81
2022/03/22 11:47:41;;;;;;;15.77;6.15;;;;;;;16.45;34.53;101352.28;4927884;29;20094;-80
2022/03/22 11:50:09;;;;;;;12.63;6.65;;;;;;;16.32;34.80;101354.38;4926782;29;20565;-81
2022/03/22 11:52:37;;;;;;;21.38;5.75;;;;;;;16.32;34.76;101350.81;4918142;29;20115;-80
2022/03/22 11:55:15;;;;;;;12.38;5.60;;;;;;;16.40;35.24;101347.56;4921129;29;20046;-80
2022/03/22 11:58:08;;;;;;;15.30;6.15;;;;;;;16.40;35.58;101342.03;4931719;29;20035;-82
2022/03/22 12:00:43;;;;;;;13.55;6.88;;;;;;;16.37;34.05;101334.34;4919415;29;20055;-81
2022/03/22 12:03:10;;;;;;;13.35;6.30;;;;;;;16.34;33.63;101345.84;4932470;28;20039;-80
2022/03/22 12:05:35;;;;;;;15.75;6.45;;;;;;;16.59;34.77;101347.13;4934435;29;20039;-79
2022/03/22 12:08:06;;;;;;;13.07;6.15;;;;;;;16.90;31.92;101343.69;4930741;29;20027;-80
2022/03/22 12:10:31;;;;;;;11.88;5.75;;;;;;;17.15;33.35;101342.97;4925129;29;20042;-80